createdAt,value
2022-12-17T00:01:41.340Z,23.58
2022-12-17T00:04:26.992Z,23.31
2022-12-17T00:07:12.341Z,23.45
2022-12-17T00:09:57.794Z,23.10
2022-12-17T00:12:43.500Z,23.50
2022-12-17T00:15:29.413Z,23.45
2022-12-17T00:18:17.540Z,23.09
2022-12-17T00:21:03.021Z,23.09
2022-12-17T00:23:48.638Z,23.09
2022-12-17T00:26:34.243Z,23.05
2022-12-17T00:29:31.056Z,23.29
2022-12-17T00:32:17.847Z,23.07
2022-12-17T00:35:03.158Z,23.68
2022-12-17T00:37:48.561Z,23.40
2022-12-17T00:40:33.935Z,23.37
2022-12-17T00:43:20.454Z,23.63
2022-12-17T00:46:05.752Z,23.09
2022-12-17T00:48:52.603Z,23.03
2022-12-17T00:51:37.805Z,23.46
2022-12-17T00:54:23.171Z,23.36
2022-12-17T00:57:08.237Z,23.42
2022-12-17T00:59:53.545Z,23.31
2022-12-17T01:02:39.236Z,23.37
2022-12-17T01:05:35.190Z,23.15
2022-12-17T01:08:26.174Z,23.08
2022-12-17T01:11:11.442Z,23.31
2022-12-17T01:13:59.428Z,23.31
2022-12-17T01:16:44.855Z,23.27
2022-12-17T01:19:30.206Z,23.64
2022-12-17T01:22:17.324Z,23.29
2022-12-17T01:24:59.003Z,23.38
2022-12-17T01:27:44.323Z,23.44
2022-12-17T01:30:30.092Z,23.43
2022-12-17T01:33:20.175Z,23.04
2022-12-17T01:36:05.606Z,23.09
2022-12-17T01:38:52.529Z,23.34
2022-12-17T01:41:37.689Z,23.08
2022-12-17T01:45:08.894Z,23.70
2022-12-17T01:47:56.534Z,23.56
2022-12-17T01:50:42.806Z,23.67
2022-12-17T01:53:28.511Z,23.62
2022-12-17T01:56:15.008Z,23.13
2022-12-17T01:59:00.262Z,23.70
2022-12-17T02:01:45.771Z,23.69
2022-12-17T02:04:31.167Z,23.20
2022-12-17T02:07:27.871Z,23.66
2022-12-17T02:10:16.663Z,23.40
2022-12-17T02:13:04.083Z,23.65
2022-12-17T02:15:50.913Z,23.49
2022-12-17T02:18:33.967Z,23.22
2022-12-17T02:21:19.289Z,23.45
2022-12-17T02:24:07.851Z,23.14
2022-12-17T02:26:55.935Z,23.45
2022-12-17T02:29:42.383Z,23.25
2022-12-17T02:32:27.931Z,23.51
2022-12-17T02:35:13.005Z,23.26
2022-12-17T02:38:03.949Z,23.29
2022-12-17T02:40:49.276Z,23.12
2022-12-17T02:43:36.632Z,23.57
2022-12-17T02:46:22.633Z,23.70
2022-12-17T02:49:08.266Z,23.67
2022-12-17T02:51:54.047Z,23.67
2022-12-17T02:54:39.733Z,23.68
2022-12-17T02:57:24.830Z,23.43
2022-12-17T03:00:11.827Z,23.50
2022-12-17T03:02:57.400Z,23.25
2022-12-17T03:05:45.386Z,23.43
2022-12-17T03:08:31.225Z,23.79
2022-12-17T03:11:16.563Z,23.58
2022-12-17T03:14:02.134Z,23.15
2022-12-17T03:16:49.023Z,23.51
2022-12-17T03:19:34.180Z,23.06
2022-12-17T03:22:19.805Z,23.20
2022-12-17T03:25:04.866Z,23.11
2022-12-17T03:27:50.239Z,23.14
2022-12-17T03:30:39.073Z,23.66
2022-12-17T03:33:34.349Z,23.17
2022-12-17T03:36:20.034Z,23.16
2022-12-17T03:39:05.257Z,23.17
2022-12-17T03:41:50.680Z,23.44
2022-12-17T03:44:35.953Z,23.26
2022-12-17T03:47:21.038Z,23.56
2022-12-17T03:50:07.837Z,23.63
2022-12-17T03:52:49.901Z,23.57
2022-12-17T03:55:35.260Z,23.71
2022-12-17T03:58:20.524Z,23.38
2022-12-17T04:01:05.718Z,23.73
2022-12-17T04:03:51.026Z,23.54
2022-12-17T04:06:37.669Z,23.27
2022-12-17T04:09:23.072Z,23.70
2022-12-17T04:12:08.341Z,23.13
2022-12-17T04:14:53.780Z,23.25
2022-12-17T04:17:39.015Z,23.16
2022-12-17T04:20:30.621Z,23.58
2022-12-17T04:23:17.457Z,23.68
2022-12-17T04:26:02.845Z,23.68
2022-12-17T04:28:48.306Z,23.19
2022-12-17T04:31:33.821Z,23.20
2022-12-17T04:34:19.312Z,23.63
2022-12-17T04:37:04.481Z,23.78
2022-12-17T04:39:51.107Z,23.74
2022-12-17T04:42:37.699Z,23.26
2022-12-17T04:45:23.648Z,23.22
2022-12-17T04:48:08.589Z,23.75
2022-12-17T04:50:53.841Z,23.64
2022-12-17T04:53:39.704Z,23.71
2022-12-17T04:56:26.399Z,23.46
2022-12-17T04:59:11.729Z,23.58
2022-12-17T05:01:57.228Z,23.38
2022-12-17T05:04:42.742Z,23.75
2022-12-17T05:07:28.010Z,23.50
2022-12-17T05:10:13.333Z,23.74
2022-12-17T05:13:00.590Z,23.31
2022-12-17T05:15:49.741Z,23.77
2022-12-17T05:18:38.309Z,23.35
2022-12-17T05:21:23.711Z,23.62
2022-12-17T05:24:09.658Z,23.76
2022-12-17T05:26:54.698Z,23.82
2022-12-17T05:29:43.966Z,23.32
2022-12-17T05:32:30.806Z,23.29
2022-12-17T05:35:15.774Z,23.70
2022-12-17T05:38:01.120Z,23.22
2022-12-17T05:40:46.489Z,23.17
2022-12-17T05:43:32.056Z,23.50
2022-12-17T05:46:18.971Z,23.37
2022-12-17T05:49:04.076Z,23.73
2022-12-17T05:51:49.455Z,23.39
2022-12-17T05:54:35.141Z,23.24
2022-12-17T05:57:20.466Z,23.20
2022-12-17T06:00:07.832Z,23.43
2022-12-17T06:02:55.008Z,23.22
2022-12-17T06:05:40.439Z,23.33
2022-12-17T06:08:26.378Z,23.35
2022-12-17T06:11:11.720Z,23.29
2022-12-17T06:13:57.227Z,23.15
2022-12-17T06:16:42.342Z,23.76
2022-12-17T06:19:29.291Z,23.25
2022-12-17T06:22:15.060Z,23.37
2022-12-17T06:25:00.365Z,23.67
2022-12-17T06:27:45.798Z,23.14
2022-12-17T06:30:31.253Z,23.35
2022-12-17T06:33:22.912Z,23.61
2022-12-17T06:36:10.790Z,23.57
2022-12-17T06:38:56.243Z,23.11
2022-12-17T06:41:41.629Z,23.05
2022-12-17T06:44:27.310Z,23.64
2022-12-17T06:47:24.081Z,23.20
2022-12-17T06:50:09.430Z,23.31
2022-12-17T06:52:56.772Z,23.13
2022-12-17T06:55:41.892Z,23.59
2022-12-17T06:58:27.328Z,23.21
2022-12-17T07:01:12.740Z,23.28
2022-12-17T07:03:58.153Z,23.67
2022-12-17T07:06:43.332Z,23.29
2022-12-17T07:09:44.628Z,23.22
2022-12-17T07:12:30.239Z,23.14
2022-12-17T07:15:15.521Z,23.11
2022-12-17T07:18:01.017Z,23.61
2022-12-17T07:20:46.413Z,23.19
2022-12-17T07:23:32.088Z,23.67
2022-12-17T07:26:19.110Z,23.64
2022-12-17T07:29:04.406Z,23.57
2022-12-17T07:31:49.797Z,23.55
2022-12-17T07:34:35.247Z,23.41
2022-12-17T07:37:20.836Z,23.10
2022-12-17T07:40:06.303Z,23.63
2022-12-17T07:42:53.563Z,23.26
2022-12-17T07:45:39.037Z,23.09
2022-12-17T07:48:24.736Z,23.27
2022-12-17T07:51:10.068Z,23.43
2022-12-17T07:53:55.787Z,23.21
2022-12-17T07:56:41.410Z,23.69
2022-12-17T07:59:28.250Z,23.21
2022-12-17T08:02:14.182Z,23.29
2022-12-17T08:04:59.669Z,23.25
2022-12-17T08:07:45.085Z,23.50
2022-12-17T08:10:30.333Z,23.08
2022-12-17T08:13:15.954Z,23.40
2022-12-17T08:16:02.758Z,23.75
2022-12-17T08:18:48.060Z,23.69
2022-12-17T08:21:33.386Z,23.33
2022-12-17T08:24:18.876Z,23.04
2022-12-17T08:27:04.111Z,23.41
2022-12-17T08:29:49.477Z,23.09
2022-12-17T08:32:36.434Z,23.26
2022-12-17T08:35:21.649Z,23.04
2022-12-17T08:38:06.982Z,23.22
2022-12-17T08:40:52.224Z,23.39
2022-12-17T08:43:37.923Z,23.26
2022-12-17T08:46:23.740Z,23.59
2022-12-17T08:49:10.403Z,23.22
2022-12-17T08:51:55.771Z,23.40
2022-12-17T08:54:41.434Z,23.00
2022-12-17T08:57:31.828Z,23.54
2022-12-17T09:00:17.626Z,23.69
2022-12-17T09:03:03.362Z,23.51
2022-12-17T09:05:50.248Z,23.26
2022-12-17T09:08:35.578Z,23.16
2022-12-17T09:11:20.848Z,22.93
2022-12-17T09:14:06.498Z,23.56
2022-12-17T09:16:51.977Z,23.26
2022-12-17T09:19:37.102Z,23.51
2022-12-17T09:22:24.367Z,23.49
2022-12-17T09:25:09.446Z,23.17
2022-12-17T09:27:54.867Z,23.01
2022-12-17T09:30:40.213Z,23.54
2022-12-17T09:33:25.950Z,23.10
2022-12-17T09:36:11.671Z,23.46
2022-12-17T09:38:58.318Z,23.51
2022-12-17T09:41:45.186Z,23.38
2022-12-17T09:44:36.469Z,22.97
2022-12-17T09:47:26.939Z,23.29
2022-12-17T09:50:12.630Z,23.18
2022-12-17T09:53:01.060Z,23.23
2022-12-17T09:55:50.775Z,23.26
2022-12-17T09:58:37.781Z,23.57
2022-12-17T10:01:23.652Z,23.41
2022-12-17T10:04:08.951Z,22.92
2022-12-17T10:06:54.705Z,23.24
2022-12-17T10:09:39.905Z,22.96
2022-12-17T10:12:32.687Z,22.98
2022-12-17T10:15:32.803Z,22.91
2022-12-17T10:18:18.481Z,23.27
2022-12-17T10:21:06.231Z,23.12
2022-12-17T10:23:52.255Z,23.32
2022-12-17T10:26:38.058Z,23.33
2022-12-17T10:29:27.979Z,23.42
2022-12-17T10:32:13.744Z,23.29
2022-12-17T10:35:04.940Z,22.91
2022-12-17T10:37:52.764Z,23.03
2022-12-17T10:40:42.022Z,22.83
2022-12-17T10:43:44.059Z,23.16
2022-12-17T10:46:31.050Z,23.28
2022-12-17T10:49:23.709Z,23.17
2022-12-17T10:52:09.095Z,22.96
2022-12-17T10:54:54.803Z,22.82
2022-12-17T10:58:00.724Z,23.11
2022-12-17T11:00:50.313Z,23.22
2022-12-17T11:03:46.683Z,23.33
2022-12-17T11:06:37.422Z,22.99
2022-12-17T11:09:23.255Z,22.89
2022-12-17T11:12:08.619Z,23.30
2022-12-17T11:14:58.628Z,22.82
2022-12-17T11:17:43.988Z,23.24
2022-12-17T11:20:39.159Z,23.02
2022-12-17T11:23:24.661Z,22.93
2022-12-17T11:26:13.037Z,22.95
2022-12-17T11:28:58.440Z,23.35
2022-12-17T11:31:57.887Z,23.18
2022-12-17T11:34:48.244Z,22.78
2022-12-17T11:37:33.305Z,22.87
2022-12-17T11:40:20.500Z,23.01
2022-12-17T11:43:08.613Z,22.87
2022-12-17T11:45:55.909Z,22.91
2022-12-17T11:48:44.273Z,22.71
2022-12-17T11:51:31.710Z,22.78
2022-12-17T11:54:20.845Z,22.67
2022-12-17T11:57:08.096Z,22.61
2022-12-17T11:59:58.164Z,22.83
2022-12-17T12:03:01.063Z,23.09
2022-12-17T12:05:56.427Z,22.99
2022-12-17T12:08:43.137Z,22.73
2022-12-17T12:11:47.820Z,22.77
2022-12-17T12:14:41.226Z,23.05
2022-12-17T12:17:36.865Z,23.12
2022-12-17T12:20:24.575Z,22.67
2022-12-17T12:23:13.188Z,22.82
2022-12-17T12:26:00.988Z,23.22
2022-12-17T12:28:49.912Z,23.07
2022-12-17T12:31:40.820Z,22.62
2022-12-17T12:34:28.192Z,22.87
2022-12-17T12:37:13.648Z,22.75
2022-12-17T12:40:00.549Z,22.79
2022-12-17T12:42:48.523Z,22.99
2022-12-17T12:45:49.575Z,23.18
2022-12-17T12:48:43.291Z,22.67
2022-12-17T12:51:34.236Z,23.07
2022-12-17T12:54:21.123Z,23.02
2022-12-17T12:57:06.367Z,23.24
2022-12-17T12:59:52.831Z,23.28
2022-12-17T13:02:45.689Z,22.73
2022-12-17T13:05:33.786Z,23.25
2022-12-17T13:08:20.698Z,23.25
2022-12-17T13:10:48.690Z,22.76
2022-12-17T13:13:25.896Z,22.89
2022-12-17T13:15:55.472Z,22.66
2022-12-17T13:18:28.487Z,23.24
2022-12-17T13:21:03.437Z,22.90
2022-12-17T13:23:33.637Z,23.02
2022-12-17T13:26:23.480Z,22.86
2022-12-17T13:29:03.264Z,23.11
2022-12-17T13:31:32.274Z,22.63
2022-12-17T13:34:07.117Z,23.08
2022-12-17T13:36:38.804Z,23.00
2022-12-17T13:39:20.464Z,22.99
2022-12-17T13:41:54.558Z,22.82
2022-12-17T13:44:24.059Z,23.08
2022-12-17T13:46:52.741Z,22.60
2022-12-17T13:49:23.006Z,23.02
2022-12-17T13:52:03.284Z,23.15
2022-12-17T13:54:34.568Z,23.15
2022-12-17T13:57:09.626Z,22.64
2022-12-17T13:59:37.608Z,22.90
2022-12-17T14:02:06.773Z,22.77
2022-12-17T14:04:36.217Z,22.65
2022-12-17T14:07:05.295Z,23.14
2022-12-17T14:09:34.965Z,22.54
2022-12-17T14:12:20.776Z,22.90
2022-12-17T14:14:49.494Z,22.61
2022-12-17T14:17:20.807Z,22.61
2022-12-17T14:19:50.223Z,23.07
2022-12-17T14:22:20.225Z,23.01
2022-12-17T14:24:48.392Z,22.66
2022-12-17T14:27:23.304Z,22.63
2022-12-17T14:29:51.164Z,22.95
2022-12-17T14:32:31.407Z,22.84
2022-12-17T14:35:01.219Z,22.68
2022-12-17T14:37:29.533Z,22.62
2022-12-17T14:39:59.890Z,22.82
2022-12-17T14:42:29.460Z,22.83
2022-12-17T14:44:59.362Z,22.61
2022-12-17T14:47:28.253Z,22.61
2022-12-17T14:49:58.626Z,22.66
2022-12-17T14:52:34.656Z,23.08
2022-12-17T14:55:02.839Z,22.97
2022-12-17T14:57:30.731Z,22.85
2022-12-17T14:59:58.602Z,23.15
2022-12-17T15:02:27.728Z,22.93
2022-12-17T15:04:58.254Z,23.10
2022-12-17T15:07:26.889Z,23.09
2022-12-17T15:09:56.371Z,22.56
2022-12-17T15:12:24.877Z,23.03
2022-12-17T15:14:53.040Z,22.62
2022-12-17T15:17:20.942Z,22.73
2022-12-17T15:19:54.248Z,23.08
2022-12-17T15:22:24.041Z,22.97
2022-12-17T15:24:51.934Z,23.02
2022-12-17T15:27:21.200Z,22.57
2022-12-17T15:29:49.048Z,23.17
2022-12-17T15:32:19.246Z,22.79
2022-12-17T15:34:47.382Z,23.08
2022-12-17T15:37:15.291Z,23.13
2022-12-17T15:39:43.222Z,23.05
2022-12-17T15:42:28.012Z,22.97
2022-12-17T15:44:57.373Z,22.98
2022-12-17T15:47:25.238Z,22.97
2022-12-17T15:49:53.133Z,22.76
2022-12-17T15:52:21.354Z,23.17
2022-12-17T15:54:49.281Z,22.68
2022-12-17T15:57:18.882Z,23.02
2022-12-17T15:59:46.985Z,23.12
2022-12-17T16:02:16.381Z,22.80
2022-12-17T16:04:44.654Z,22.74
2022-12-17T16:07:13.007Z,22.80
2022-12-17T16:09:40.890Z,22.85
2022-12-17T16:12:08.894Z,22.84
2022-12-17T16:14:36.808Z,22.66
2022-12-17T16:17:04.679Z,22.80
2022-12-17T16:19:33.949Z,23.10
2022-12-17T16:22:01.991Z,22.95
2022-12-17T16:24:30.209Z,22.60
2022-12-17T16:27:04.055Z,22.60
2022-12-17T16:29:32.495Z,23.08
2022-12-17T16:32:00.549Z,23.10
2022-12-17T16:34:28.997Z,23.12
2022-12-17T16:36:58.261Z,22.85
2022-12-17T16:39:26.135Z,23.14
2022-12-17T16:41:53.977Z,22.80
2022-12-17T16:44:21.833Z,23.02
2022-12-17T16:46:50.257Z,22.60
2022-12-17T16:49:19.692Z,22.66
2022-12-17T16:51:48.268Z,22.98
2022-12-17T16:54:19.268Z,22.97
2022-12-17T16:56:47.327Z,23.02
2022-12-17T16:59:15.744Z,22.87
2022-12-17T17:01:44.905Z,22.54
2022-12-17T17:04:13.167Z,22.75
2022-12-17T17:06:41.594Z,22.79
2022-12-17T17:09:09.605Z,22.90
2022-12-17T17:11:38.882Z,22.58
2022-12-17T17:14:06.901Z,22.58
2022-12-17T17:16:35.238Z,22.72
2022-12-17T17:19:03.829Z,22.81
2022-12-17T17:21:33.332Z,22.87
2022-12-17T17:24:01.895Z,22.82
2022-12-17T17:26:30.366Z,22.91
2022-12-17T17:28:59.857Z,22.71
2022-12-17T17:32:01.242Z,22.62
2022-12-17T17:34:16.053Z,22.97
2022-12-17T17:36:44.220Z,22.91
2022-12-17T17:39:12.098Z,22.55
2022-12-17T17:41:40.091Z,22.49
2022-12-17T17:44:11.211Z,23.09
2022-12-17T17:46:39.380Z,22.85
2022-12-17T17:49:08.009Z,22.75
2022-12-17T17:52:07.735Z,22.78
2022-12-17T17:54:25.091Z,22.45
2022-12-17T17:56:53.228Z,22.59
2022-12-17T17:59:30.968Z,22.48
2022-12-17T18:02:01.287Z,22.48
2022-12-17T18:04:29.868Z,22.51
2022-12-17T18:09:45.684Z,22.98
2022-12-17T18:12:31.253Z,22.98
2022-12-17T18:15:18.862Z,22.96
2022-12-17T18:17:47.422Z,22.93
2022-12-17T18:20:15.357Z,22.88
2022-12-17T18:22:43.381Z,22.85
2022-12-17T18:25:11.744Z,22.75
2022-12-17T18:27:39.827Z,23.00
2022-12-17T18:30:12.631Z,22.57
2022-12-17T18:32:40.819Z,22.59
2022-12-17T18:35:10.177Z,22.76
2022-12-17T18:37:44.453Z,22.95
2022-12-17T18:40:14.827Z,22.50
2022-12-17T18:43:03.341Z,22.78
2022-12-17T18:45:45.329Z,23.03
2022-12-17T18:48:13.569Z,22.92
2022-12-17T18:50:41.425Z,23.02
2022-12-17T18:53:09.597Z,22.45
2022-12-17T18:55:40.506Z,22.42
2022-12-17T18:58:09.150Z,22.86
2022-12-17T19:00:39.840Z,22.76
2022-12-17T19:03:10.101Z,22.61
2022-12-17T19:05:45.181Z,22.83
2022-12-17T19:08:14.473Z,22.82
2022-12-17T19:10:42.705Z,22.42
2022-12-17T19:13:10.945Z,22.33
2022-12-17T19:15:40.230Z,22.94
2022-12-17T19:18:08.081Z,22.86
2022-12-17T19:20:35.978Z,23.00
2022-12-17T19:23:03.917Z,22.60
2022-12-17T19:25:32.273Z,22.95
2022-12-17T19:28:00.206Z,22.94
2022-12-17T19:30:28.165Z,22.52
2022-12-17T19:32:57.482Z,22.95
2022-12-17T19:35:25.787Z,22.92
2022-12-17T19:37:53.725Z,22.70
2022-12-17T19:40:21.654Z,22.43
2022-12-17T19:42:49.525Z,22.37
2022-12-17T19:45:17.582Z,22.53
2022-12-17T19:47:45.451Z,22.95
2022-12-17T19:50:14.821Z,22.42
2022-12-17T19:52:42.736Z,22.50
2022-12-17T19:55:11.156Z,22.85
2022-12-17T19:57:39.253Z,22.90
2022-12-17T20:00:10.847Z,22.86
2022-12-17T20:02:39.085Z,22.39
2022-12-17T20:05:08.217Z,22.80
2022-12-17T20:07:37.514Z,22.87
2022-12-17T20:10:06.043Z,22.66
2022-12-17T20:12:33.987Z,22.34
2022-12-17T20:15:02.348Z,22.37
2022-12-17T20:17:30.540Z,22.33
2022-12-17T20:19:58.554Z,22.90
2022-12-17T20:22:26.564Z,22.57
2022-12-17T20:24:56.241Z,22.72
2022-12-17T20:27:24.114Z,22.69
2022-12-17T20:29:52.177Z,22.39
2022-12-17T20:32:21.319Z,22.70
2022-12-17T20:34:49.698Z,22.86
2022-12-17T20:37:17.666Z,22.66
2022-12-17T20:39:45.555Z,22.57
2022-12-17T20:42:14.869Z,22.70
2022-12-17T20:44:42.871Z,22.84
2022-12-17T20:47:10.733Z,22.40
2022-12-17T20:49:38.605Z,22.86
2022-12-17T20:52:06.533Z,22.74
2022-12-17T20:54:35.708Z,22.61
2022-12-17T20:57:03.565Z,22.85
2022-12-17T20:59:32.853Z,22.91
2022-12-17T21:02:00.870Z,22.67
2022-12-17T21:04:29.282Z,22.82
2022-12-17T21:06:57.145Z,22.69
2022-12-17T21:09:25.553Z,22.61
2022-12-17T21:11:53.608Z,22.69
2022-12-17T21:14:21.506Z,22.34
2022-12-17T21:16:51.113Z,22.64
2022-12-17T21:19:22.056Z,22.49
2022-12-17T21:21:50.118Z,22.59
2022-12-17T21:24:18.010Z,22.86
2022-12-17T21:26:47.064Z,22.58
2022-12-17T21:29:15.537Z,22.24
2022-12-17T21:31:44.775Z,22.62
2022-12-17T21:34:15.233Z,22.87
2022-12-17T21:36:43.245Z,22.46
2022-12-17T21:39:11.212Z,22.81
2022-12-17T21:41:42.555Z,22.14
2022-12-17T21:44:13.356Z,22.66
2022-12-17T21:46:42.867Z,22.56
2022-12-17T21:49:12.889Z,22.21
2022-12-17T21:51:41.014Z,22.42
2022-12-17T21:54:11.401Z,22.16
2022-12-17T21:56:41.193Z,22.75
2022-12-17T21:59:09.067Z,22.75
2022-12-17T22:01:37.095Z,22.26
2022-12-17T22:04:05.420Z,22.27
2022-12-17T22:06:43.711Z,22.70
2022-12-17T22:09:30.512Z,22.27
2022-12-17T22:12:32.991Z,22.51
2022-12-17T22:15:00.878Z,22.23
2022-12-17T22:17:29.569Z,22.76
2022-12-17T22:19:57.469Z,22.81
2022-12-17T22:22:26.782Z,22.27
2022-12-17T22:24:55.097Z,22.54
2022-12-17T22:27:23.119Z,22.29
2022-12-17T22:30:09.516Z,22.30
2022-12-17T22:32:54.748Z,22.75
2022-12-17T22:36:57.795Z,22.39
2022-12-17T22:42:41.407Z,22.30
2022-12-17T22:44:32.403Z,22.35
2022-12-17T22:44:45.171Z,22.65
2022-12-17T22:46:41.332Z,22.38
2022-12-17T22:49:09.269Z,22.34
2022-12-17T22:51:37.241Z,22.70
2022-12-17T22:54:11.514Z,22.29
2022-12-17T22:57:15.340Z,22.62
2022-12-17T22:59:28.696Z,22.71
2022-12-17T23:01:56.617Z,22.38
2022-12-17T23:04:24.575Z,22.52
2022-12-17T23:06:52.541Z,22.69
2022-12-17T23:09:22.066Z,22.24
2022-12-17T23:11:49.973Z,22.29
2022-12-17T23:14:18.093Z,22.55
2022-12-17T23:16:46.154Z,22.47
2022-12-17T23:19:14.153Z,22.50
2022-12-17T23:21:42.172Z,22.32
2022-12-17T23:24:10.428Z,22.22
2022-12-17T23:26:40.680Z,22.70
2022-12-17T23:29:09.502Z,22.18
2022-12-17T23:31:40.224Z,22.26
2022-12-17T23:34:08.465Z,22.12
2022-12-17T23:36:36.676Z,22.60
2022-12-17T23:39:04.860Z,22.20
2022-12-17T23:41:32.936Z,22.66
2022-12-17T23:44:02.267Z,22.17
2022-12-17T23:46:30.692Z,22.23
2022-12-17T23:48:58.682Z,22.65
2022-12-17T23:51:26.733Z,22.58
2022-12-17T23:53:54.615Z,22.68
2022-12-17T23:56:23.506Z,22.52
2022-12-17T23:58:53.155Z,22.08
